Eastsound, WA

7:53 AM PDT on October 01, 2014 (GMT -0700)
Whidbey Island Naval Air Station | Change Station
CLOSE
Current Station
Airport
Location: Whidbey Island,
Elevation: 46 ft
Nearby Weather Stations

Elev 46 ft 48.35 °N, 122.66 °W | Updated 6 minutes ago

Mostly Cloudy
Mostly Cloudy
56 °F
Feels Like 56 °F
N
15
Wind Variable Wind from West

Today
High -- | Low -- °F
--% Chance of Precip.
Yesterday
High -- | Low -- °F
Precip. -- in
7:11 AM 6:50 PM
Waxing Crescent, 48% visible
Pressure 30.04 in
Visibility 10.0 miles
Clouds Few 800 ft
Few 4500 ft
Mostly Cloudy 8000 ft
Dew Point 51 °F
Humidity 84%
Rainfall 0.00 in
Snow Depth 0 in , 0 in , 0 in
UV 0 out of 12
Pollen 1.30 out of 12
Air Quality Not available.
Flu Activity Not available.
METAR KNUW 301447Z 26013KT 10SM FEW008 FEW045 BKN080 13/11 A3004 RMK AO2 T01330106 $

More Conditions Fewer Conditions

Pressure 30.04 in
Visibility 10.0 miles
Clouds Few 800 ft
Few 4500 ft
Mostly Cloudy 8000 ft
Dew Point 51 °F
Humidity 84%
Rainfall 0.00 in
Snow Depth 0 in , 0 in , 0 in
UV 0 out of 12
Pollen 1.30 out of 12
Air Quality Not available.
Flu Activity Not available.
METAR KNUW 301447Z 26013KT 10SM FEW008 FEW045 BKN080 13/11 A3004 RMK AO2 T01330106 $

More Conditions Fewer Conditions

10-Day Weather Forecast

Almanac

Astronomy

Oct. 01, 2014 Rise Set
Actual Time 7:11 AM PDT 6:50 PM PDT
Civil Twilight 6:39 AM PDT 7:21 PM PDT
Nautical Twilight 6:03 AM PDT 7:58 PM PDT
Astronomical Twilight 5:26 AM PDT 8:35 PM PDT
Moon 2:37 PM PDT No Moon Set
Length of Visible Light 12h 41m
Length of Day
11h 39m
Tomorrow will be 3m 32s shorter.
Waxing Crescent, 48% of the Moon is Illuminated
Today
Waxing Crescent
Oct 1
First Quarter
Oct 8
Full
Oct 15
Last Quarter
Oct 23
New

Today's Extremes

State Highs State Lows

Community

WunderPhotos

Upload Photos

1,757,960 photos uploaded!

Nearby

Snow Depth

Station Depth Elevation
Dungeness 0 in 4100 ft
Green Lake 0 in 6000 ft
White Pass E.S. 0 in 4500 ft
Moses Mountain 1 in 5300 ft
Lone Pine 0 in 3800 ft

Earthquake Activity

City Distance Mag. Time & Date
No recent earthquake activity has been reported nearby.
Minimum magnitude displayed is 2.5.

Coastal Water Temperatures

Place Temperature
Port Townsend, WA 52.0 °F
Friday Harbor, WA 51.1 °F
Port Angeles, WA 51.1 °F

Nearby Weather Stations